sensor_id;sensor_type;location;lat;lon;timestamp;pressure;altitude;pressure_sealevel;temperature;humidity
73821;BME280;62150;43.582;1.456;2023-02-07T06:46:21;100902.84;;;4.18;100.00
73821;BME280;62150;43.582;1.456;2023-02-07T06:48:56;100901.13;;;4.19;100.00
73821;BME280;62150;43.582;1.456;2023-02-07T06:51:24;100913.00;;;4.17;100.00
73821;BME280;62150;43.582;1.456;2023-02-07T06:53:52;100905.38;;;4.20;100.00
73821;BME280;62150;43.582;1.456;2023-02-07T06:56:19;100907.91;;;4.23;100.00
73821;BME280;62150;43.582;1.456;2023-02-07T06:58:47;100912.16;;;4.45;100.00
73821;BME280;62150;43.582;1.456;2023-02-07T07:01:14;100904.53;;;4.39;100.00
73821;BME280;62150;43.582;1.456;2023-02-07T07:03:46;100909.59;;;4.39;100.00
73821;BME280;62150;43.582;1.456;2023-02-07T07:06:14;100916.38;;;4.43;100.00
73821;BME280;62150;43.582;1.456;2023-02-07T07:08:41;100913.78;;;4.61;100.00
73821;BME280;62150;43.582;1.456;2023-02-07T07:11:09;100918.88;;;4.57;100.00
73821;BME280;62150;43.582;1.456;2023-02-07T07:13:37;100908.72;;;4.54;100.00
73821;BME280;62150;43.582;1.456;2023-02-07T07:16:05;100918.03;;;4.64;100.00
73821;BME280;62150;43.582;1.456;2023-02-07T07:18:32;100924.78;;;4.85;100.00
73821;BME280;62150;43.582;1.456;2023-02-07T07:21:04;100926.50;;;4.77;100.00
73821;BME280;62150;43.582;1.456;2023-02-07T07:23:32;100926.50;;;4.78;100.00
73821;BME280;62150;43.582;1.456;2023-02-07T07:25:59;100915.38;;;4.93;100.00
73821;BME280;62150;43.582;1.456;2023-02-07T07:28:27;100926.41;;;4.95;100.00
73821;BME280;62150;43.582;1.456;2023-02-07T07:31:00;100922.16;;;5.01;100.00
73821;BME280;62150;43.582;1.456;2023-02-07T07:33:27;100932.34;;;4.97;100.00
73821;BME280;62150;43.582;1.456;2023-02-07T07:35:56;100928.06;;;5.14;100.00
73821;BME280;62150;43.582;1.456;2023-02-07T07:38:26;100918.75;;;5.05;100.00
73821;BME280;62150;43.582;1.456;2023-02-07T07:40:53;100918.72;;;5.12;100.00
73821;BME280;62150;43.582;1.456;2023-02-07T07:43:21;100925.44;;;5.22;100.00
73821;BME280;62150;43.582;1.456;2023-02-07T07:45:51;100922.88;;;5.28;100.00
73821;BME280;62150;43.582;1.456;2023-02-07T07:48:19;100915.25;;;5.23;100.00
73821;BME280;62150;43.582;1.456;2023-02-07T07:50:47;100917.00;;;5.20;100.00
73821;BME280;62150;43.582;1.456;2023-02-07T07:53:15;100910.16;;;5.26;100.00
73821;BME280;62150;43.582;1.456;2023-02-07T07:55:48;100918.56;;;5.44;100.00
73821;BME280;62150;43.582;1.456;2023-02-07T07:58:16;100916.88;;;5.41;100.00
73821;BME280;62150;43.582;1.456;2023-02-07T08:00:46;100918.56;;;5.44;100.00
73821;BME280;62150;43.582;1.456;2023-02-07T08:03:15;100916.88;;;5.43;100.00
73821;BME280;62150;43.582;1.456;2023-02-07T08:05:44;100916.84;;;5.50;100.00
73821;BME280;62150;43.582;1.456;2023-02-07T08:08:12;100918.41;;;5.68;100.00
73821;BME280;62150;43.582;1.456;2023-02-07T08:10:41;100917.59;;;5.60;100.00
73821;BME280;62150;43.582;1.456;2023-02-07T08:13:17;100923.41;;;5.82;100.00
73821;BME280;62150;43.582;1.456;2023-02-07T08:15:45;100919.25;;;5.67;100.00
73821;BME280;62150;43.582;1.456;2023-02-07T08:18:12;100922.56;;;5.81;100.00
73821;BME280;62150;43.582;1.456;2023-02-07T08:20:40;100923.47;;;5.76;100.00
73821;BME280;62150;43.582;1.456;2023-02-07T08:23:07;100924.25;;;5.82;100.00
73821;BME280;62150;43.582;1.456;2023-02-07T08:25:35;100922.44;;;6.02;100.00
73821;BME280;62150;43.582;1.456;2023-02-07T08:28:03;100924.19;;;5.93;100.00
73821;BME280;62150;43.582;1.456;2023-02-07T08:30:32;100931.91;;;5.85;100.00
73821;BME280;62150;43.582;1.456;2023-02-07T08:33:00;100930.97;;;5.95;100.00
73821;BME280;62150;43.582;1.456;2023-02-07T08:35:28;100927.59;;;5.95;100.00
73821;BME280;62150;43.582;1.456;2023-02-07T08:37:55;100926.53;;;6.22;100.00
73821;BME280;62150;43.582;1.456;2023-02-07T08:40:23;100929.97;;;6.19;100.00
73821;BME280;62150;43.582;1.456;2023-02-07T08:42:51;100925.50;;;6.41;100.00
73821;BME280;62150;43.582;1.456;2023-02-07T08:45:19;100928.03;;;6.43;100.00
73821;BME280;62150;43.582;1.456;2023-02-07T08:47:48;100925.41;;;6.50;100.00
73821;BME280;62150;43.582;1.456;2023-02-07T08:50:16;100923.59;;;6.60;100.00
73821;BME280;62150;43.582;1.456;2023-02-07T08:52:44;100928.63;;;6.67;100.00
73821;BME280;62150;43.582;1.456;2023-02-07T08:55:12;100928.84;;;6.46;100.00
73821;BME280;62150;43.582;1.456;2023-02-07T08:57:39;100923.38;;;6.83;100.00
73821;BME280;62150;43.582;1.456;2023-02-07T09:00:08;100924.31;;;6.72;100.00
73821;BME280;62150;43.582;1.456;2023-02-07T09:02:36;100933.59;;;6.83;100.00
73821;BME280;62150;43.582;1.456;2023-02-07T09:05:06;100931.88;;;6.82;100.00
73821;BME280;62150;43.582;1.456;2023-02-07T09:07:33;100927.66;;;6.79;100.00
73821;BME280;62150;43.582;1.456;2023-02-07T09:10:01;100940.34;;;6.87;100.00
73821;BME280;62150;43.582;1.456;2023-02-07T09:12:31;100936.06;;;6.90;100.00
73821;BME280;62150;43.582;1.456;2023-02-07T09:14:58;100939.44;;;6.92;100.00
73821;BME280;62150;43.582;1.456;2023-02-07T09:17:26;100940.31;;;6.91;100.00
73821;BME280;62150;43.582;1.456;2023-02-07T09:19:54;100934.41;;;6.86;100.00
73821;BME280;62150;43.582;1.456;2023-02-07T09:22:23;100939.28;;;7.04;100.00
73821;BME280;62150;43.582;1.456;2023-02-07T09:24:50;100948.81;;;6.92;100.00
73821;BME280;62150;43.582;1.456;2023-02-07T09:27:18;100948.69;;;7.01;100.00
73821;BME280;62150;43.582;1.456;2023-02-07T09:29:45;100942.56;;;7.14;100.00
73821;BME280;62150;43.582;1.456;2023-02-07T09:32:13;100950.22;;;7.17;100.00
73821;BME280;62150;43.582;1.456;2023-02-07T09:34:40;100953.66;;;7.13;100.00
73821;BME280;62150;43.582;1.456;2023-02-07T09:37:08;100961.28;;;7.18;100.00
73821;BME280;62150;43.582;1.456;2023-02-07T09:39:37;100963.91;;;7.10;100.00
73821;BME280;62150;43.582;1.456;2023-02-07T09:42:16;100953.84;;;6.96;100.00
73821;BME280;62150;43.582;1.456;2023-02-07T09:44:53;100966.41;;;7.16;100.00
73821;BME280;62150;43.582;1.456;2023-02-07T09:47:24;100969.97;;;7.01;100.00
73821;BME280;62150;43.582;1.456;2023-02-07T09:49:54;100980.94;;;7.11;100.00
73821;BME280;62150;43.582;1.456;2023-02-07T09:52:27;100973.41;;;6.99;100.00
73821;BME280;62150;43.582;1.456;2023-02-07T09:54:58;100969.25;;;6.92;100.00
73821;BME280;62150;43.582;1.456;2023-02-07T09:57:28;100976.81;;;6.98;100.00
73821;BME280;62150;43.582;1.456;2023-02-07T10:00:06;100981.09;;;6.96;100.00
73821;BME280;62150;43.582;1.456;2023-02-07T10:02:40;100974.41;;;6.86;100.00
73821;BME280;62150;43.582;1.456;2023-02-07T10:05:15;100980.13;;;7.07;100.00
73821;BME280;62150;43.582;1.456;2023-02-07T10:07:44;100990.44;;;6.98;100.00
73821;BME280;62150;43.582;1.456;2023-02-07T10:10:18;100982.72;;;7.04;100.00
73821;BME280;62150;43.582;1.456;2023-02-07T10:12:58;100989.97;;;7.39;100.00
73821;BME280;62150;43.582;1.456;2023-02-07T10:15:40;101002.97;;;7.21;100.00
73821;BME280;62150;43.582;1.456;2023-02-07T10:21:18;101003.03;;;7.15;100.00
73821;BME280;62150;43.582;1.456;2023-02-07T10:24:06;101001.44;;;7.05;100.00
73821;BME280;62150;43.582;1.456;2023-02-07T10:26:45;101008.16;;;7.15;100.00
73821;BME280;62150;43.582;1.456;2023-02-07T10:32:14;101015.16;;;6.95;100.00
73821;BME280;62150;43.582;1.456;2023-02-07T10:34:46;101026.44;;;6.77;100.00
73821;BME280;62150;43.582;1.456;2023-02-07T10:37:18;101027.19;;;6.87;100.00
73821;BME280;62150;43.582;1.456;2023-02-07T10:39:53;101026.25;;;6.94;100.00
73821;BME280;62150;43.582;1.456;2023-02-07T10:42:27;101027.22;;;6.85;100.00
73821;BME280;62150;43.582;1.456;2023-02-07T10:44:55;101031.22;;;7.09;100.00
73821;BME280;62150;43.582;1.456;2023-02-07T10:47:23;101032.31;;;6.85;100.00
73821;BME280;62150;43.582;1.456;2023-02-07T10:49:53;101025.22;;;7.12;100.00
73821;BME280;62150;43.582;1.456;2023-02-07T10:52:28;101034.91;;;6.79;100.00
73821;BME280;62150;43.582;1.456;2023-02-07T10:54:57;101034.38;;;7.31;100.00
73821;BME280;62150;43.582;1.456;2023-02-07T10:57:28;101023.47;;;7.17;100.00
73821;BME280;62150;43.582;1.456;2023-02-07T11:00:03;101036.47;;;6.94;100.00
73821;BME280;62150;43.582;1.456;2023-02-07T11:02:44;101032.84;;;7.15;100.00
73821;BME280;62150;43.582;1.456;2023-02-07T11:05:33;101032.00;;;7.16;100.00
73821;BME280;62150;43.582;1.456;2023-02-07T11:08:04;101036.19;;;7.23;100.00
73821;BME280;62150;43.582;1.456;2023-02-07T11:10:36;101032.53;;;7.42;100.00
73821;BME280;62150;43.582;1.456;2023-02-07T11:13:12;101036.66;;;7.54;100.00
73821;BME280;62150;43.582;1.456;2023-02-07T11:15:50;101034.22;;;7.43;100.00
73821;BME280;62150;43.582;1.456;2023-02-07T11:18:32;101034.66;;;7.76;100.00
73821;BME280;62150;43.582;1.456;2023-02-07T11:21:09;101029.88;;;7.51;100.00
73821;BME280;62150;43.582;1.456;2023-02-07T11:23:45;101032.84;;;7.85;100.00
73821;BME280;62150;43.582;1.456;2023-02-07T11:26:15;101030.94;;;7.99;100.00
73821;BME280;62150;43.582;1.456;2023-02-07T11:28:45;101030.53;;;8.27;100.00
73821;BME280;62150;43.582;1.456;2023-02-07T11:31:16;101033.00;;;8.33;100.00
73821;BME280;62150;43.582;1.456;2023-02-07T11:33:45;101021.66;;;7.92;100.00
73821;BME280;62150;43.582;1.456;2023-02-07T11:36:22;101032.94;;;7.78;100.00
73821;BME280;62150;43.582;1.456;2023-02-07T11:38:54;101035.53;;;8.36;100.00
73821;BME280;62150;43.582;1.456;2023-02-07T11:41:24;101034.00;;;8.23;100.00
73821;BME280;62150;43.582;1.456;2023-02-07T11:43:56;101042.84;;;8.60;100.00
73821;BME280;62150;43.582;1.456;2023-02-07T11:46:34;101042.81;;;8.02;100.00
73821;BME280;62150;43.582;1.456;2023-02-07T11:49:05;101034.91;;;8.20;100.00
73821;BME280;62150;43.582;1.456;2023-02-07T11:51:34;101028.78;;;8.30;100.00
73821;BME280;62150;43.582;1.456;2023-02-07T11:54:04;101046.75;;;8.27;100.00
73821;BME280;62150;43.582;1.456;2023-02-07T11:56:35;101035.03;;;8.11;100.00
73821;BME280;62150;43.582;1.456;2023-02-07T11:59:10;101042.44;;;8.29;100.00
73821;BME280;62150;43.582;1.456;2023-02-07T12:01:41;101038.97;;;8.32;100.00
73821;BME280;62150;43.582;1.456;2023-02-07T12:04:14;101037.31;;;8.31;100.00
73821;BME280;62150;43.582;1.456;2023-02-07T12:06:45;101030.66;;;8.18;100.00
73821;BME280;62150;43.582;1.456;2023-02-07T12:09:22;101050.25;;;8.22;100.00
73821;BME280;62150;43.582;1.456;2023-02-07T12:11:53;101040.47;;;7.90;100.00
73821;BME280;62150;43.582;1.456;2023-02-07T12:14:28;101050.56;;;7.97;100.00
73821;BME280;62150;43.582;1.456;2023-02-07T12:17:00;101043.97;;;7.81;100.00
73821;BME280;62150;43.582;1.456;2023-02-07T12:19:32;101037.06;;;7.88;100.00
73821;BME280;62150;43.582;1.456;2023-02-07T12:22:04;101035.44;;;7.82;100.00
73821;BME280;62150;43.582;1.456;2023-02-07T12:24:36;101050.00;;;7.77;100.00
73821;BME280;62150;43.582;1.456;2023-02-07T12:27:12;101040.75;;;8.28;100.00
73821;BME280;62150;43.582;1.456;2023-02-07T12:30:01;101043.59;;;8.08;100.00
73821;BME280;62150;43.582;1.456;2023-02-07T12:32:36;101037.13;;;8.43;100.00
73821;BME280;62150;43.582;1.456;2023-02-07T12:35:13;101052.94;;;8.13;100.00
73821;BME280;62150;43.582;1.456;2023-02-07T12:37:47;101030.59;;;8.22;100.00
73821;BME280;62150;43.582;1.456;2023-02-07T12:40:21;101033.38;;;8.65;100.00
73821;BME280;62150;43.582;1.456;2023-02-07T12:42:56;101027.47;;;8.60;100.00
73821;BME280;62150;43.582;1.456;2023-02-07T12:45:38;101029.53;;;8.89;100.00
73821;BME280;62150;43.582;1.456;2023-02-07T12:48:19;101024.63;;;9.22;100.00
73821;BME280;62150;43.582;1.456;2023-02-07T12:51:07;101022.97;;;10.01;100.00
73821;BME280;62150;43.582;1.456;2023-02-07T12:53:49;101018.81;;;9.57;100.00
73821;BME280;62150;43.582;1.456;2023-02-07T12:56:32;101020.25;;;9.28;100.00
73821;BME280;62150;43.582;1.456;2023-02-07T12:59:10;101017.41;;;9.40;100.00
73821;BME280;62150;43.582;1.456;2023-02-07T13:01:45;101016.13;;;9.63;100.00
73821;BME280;62150;43.582;1.456;2023-02-07T13:04:30;100997.41;;;9.15;100.00
73821;BME280;62150;43.582;1.456;2023-02-07T13:07:11;101001.69;;;9.57;100.00
73821;BME280;62150;43.582;1.456;2023-02-07T13:09:49;101005.00;;;9.62;100.00
73821;BME280;62150;43.582;1.456;2023-02-07T13:12:22;101000.50;;;9.72;100.00
73821;BME280;62150;43.582;1.456;2023-02-07T13:15:04;100994.41;;;9.76;100.00
73821;BME280;62150;43.582;1.456;2023-02-07T13:17:48;101004.81;;;10.08;100.00
73821;BME280;62150;43.582;1.456;2023-02-07T13:20:32;101003.31;;;10.00;100.00
73821;BME280;62150;43.582;1.456;2023-02-07T13:23:09;101005.38;;;9.84;100.00
73821;BME280;62150;43.582;1.456;2023-02-07T13:25:42;101014.34;;;9.65;100.00
73821;BME280;62150;43.582;1.456;2023-02-07T13:28:15;101020.59;;;9.52;100.00
73821;BME280;62150;43.582;1.456;2023-02-07T13:30:46;101023.00;;;9.61;100.00
73821;BME280;62150;43.582;1.456;2023-02-07T13:33:26;101029.25;;;9.48;100.00
73821;BME280;62150;43.582;1.456;2023-02-07T13:36:00;101029.78;;;9.63;100.00
73821;BME280;62150;43.582;1.456;2023-02-07T13:38:38;101026.94;;;9.35;100.00
73821;BME280;62150;43.582;1.456;2023-02-07T13:41:10;101034.16;;;9.15;100.00
73821;BME280;62150;43.582;1.456;2023-02-07T13:43:52;101022.97;;;9.19;100.00
73821;BME280;62150;43.582;1.456;2023-02-07T13:49:28;101034.88;;;9.23;100.00
73821;BME280;62150;43.582;1.456;2023-02-07T13:52:03;101028.69;;;9.33;100.00
73821;BME280;62150;43.582;1.456;2023-02-07T13:54:38;101034.78;;;9.28;100.00
73821;BME280;62150;43.582;1.456;2023-02-07T13:57:19;101029.69;;;8.80;100.00
73821;BME280;62150;43.582;1.456;2023-02-07T14:00:14;101032.25;;;9.26;100.00
73821;BME280;62150;43.582;1.456;2023-02-07T14:02:46;101026.78;;;9.00;100.00
73821;BME280;62150;43.582;1.456;2023-02-07T14:05:22;101023.97;;;9.12;100.00
73821;BME280;62150;43.582;1.456;2023-02-07T14:07:55;101037.22;;;8.89;100.00
73821;BME280;62150;43.582;1.456;2023-02-07T14:10:45;101037.78;;;9.03;100.00
73821;BME280;62150;43.582;1.456;2023-02-07T14:13:22;101033.31;;;9.15;100.00
73821;BME280;62150;43.582;1.456;2023-02-07T14:15:56;101027.41;;;9.11;100.00
73821;BME280;62150;43.582;1.456;2023-02-07T14:18:46;101039.94;;;9.26;100.00
73821;BME280;62150;43.582;1.456;2023-02-07T14:21:41;101049.69;;;9.06;100.00
73821;BME280;62150;43.582;1.456;2023-02-07T14:24:29;101023.16;;;9.08;100.00
73821;BME280;62150;43.582;1.456;2023-02-07T14:27:02;101027.06;;;9.29;100.00
73821;BME280;62150;43.582;1.456;2023-02-07T14:33:14;101024.72;;;9.60;100.00
73821;BME280;62150;43.582;1.456;2023-02-07T14:36:05;101021.66;;;9.41;100.00
73821;BME280;62150;43.582;1.456;2023-02-07T14:39:00;101015.94;;;9.30;100.00
73821;BME280;62150;43.582;1.456;2023-02-07T14:41:31;101018.09;;;9.49;100.00
73821;BME280;62150;43.582;1.456;2023-02-07T14:44:01;101016.75;;;9.72;100.00
73821;BME280;62150;43.582;1.456;2023-02-07T14:46:32;101032.66;;;9.48;100.00
73821;BME280;62150;43.582;1.456;2023-02-07T14:49:03;101032.63;;;9.90;100.00
73821;BME280;62150;43.582;1.456;2023-02-07T14:51:39;101025.25;;;9.74;100.00
73821;BME280;62150;43.582;1.456;2023-02-07T14:54:16;101020.28;;;9.68;100.00
73821;BME280;62150;43.582;1.456;2023-02-07T14:56:50;101019.31;;;10.09;100.00
73821;BME280;62150;43.582;1.456;2023-02-07T14:59:26;101027.03;;;9.71;100.00
73821;BME280;62150;43.582;1.456;2023-02-07T15:01:54;101025.78;;;9.90;100.00
73821;BME280;62150;43.582;1.456;2023-02-07T15:04:22;101027.97;;;9.68;100.00
73821;BME280;62150;43.582;1.456;2023-02-07T15:06:50;101029.31;;;9.43;100.00
73821;BME280;62150;43.582;1.456;2023-02-07T15:09:23;101025.94;;;9.41;100.00
73821;BME280;62150;43.582;1.456;2023-02-07T15:11:52;101032.53;;;9.11;100.00
73821;BME280;62150;43.582;1.456;2023-02-07T15:14:30;101015.91;;;9.32;100.00
73821;BME280;62150;43.582;1.456;2023-02-07T15:16:59;101024.22;;;9.00;100.00
73821;BME280;62150;43.582;1.456;2023-02-07T15:19:32;101018.06;;;9.07;100.00
73821;BME280;62150;43.582;1.456;2023-02-07T15:22:01;101033.88;;;9.30;100.00
73821;BME280;62150;43.582;1.456;2023-02-07T15:24:33;101032.34;;;9.20;100.00
73821;BME280;62150;43.582;1.456;2023-02-07T15:27:05;101028.00;;;9.67;100.00
73821;BME280;62150;43.582;1.456;2023-02-07T15:29:34;101031.63;;;9.57;100.00
73821;BME280;62150;43.582;1.456;2023-02-07T15:32:15;101035.66;;;9.68;100.00
73821;BME280;62150;43.582;1.456;2023-02-07T15:34:46;101043.47;;;9.64;100.00
73821;BME280;62150;43.582;1.456;2023-02-07T15:37:18;101037.84;;;9.45;100.00
73821;BME280;62150;43.582;1.456;2023-02-07T15:39:47;101043.47;;;9.64;100.00
73821;BME280;62150;43.582;1.456;2023-02-07T15:42:17;101040.53;;;9.39;100.00
73821;BME280;62150;43.582;1.456;2023-02-07T15:44:49;101054.78;;;9.54;100.00
73821;BME280;62150;43.582;1.456;2023-02-07T15:47:35;101052.31;;;9.48;100.00
73821;BME280;62150;43.582;1.456;2023-02-07T15:50:18;101060.28;;;9.35;100.00
73821;BME280;62150;43.582;1.456;2023-02-07T15:52:50;101059.59;;;10.07;100.00
73821;BME280;62150;43.582;1.456;2023-02-07T15:55:25;101053.00;;;9.57;100.00
73821;BME280;62150;43.582;1.456;2023-02-07T15:57:56;101062.28;;;9.63;100.00
73821;BME280;62150;43.582;1.456;2023-02-07T16:00:27;101068.66;;;8.99;100.00
73821;BME280;62150;43.582;1.456;2023-02-07T16:02:57;101075.84;;;9.25;100.00
73821;BME280;62150;43.582;1.456;2023-02-07T16:05:28;101070.00;;;9.18;100.00
73821;BME280;62150;43.582;1.456;2023-02-07T16:08:02;101066.66;;;9.13;100.00
73821;BME280;62150;43.582;1.456;2023-02-07T16:10:37;101074.47;;;9.07;100.00
73821;BME280;62150;43.582;1.456;2023-02-07T16:13:16;101061.69;;;9.50;100.00
73821;BME280;62150;43.582;1.456;2023-02-07T16:15:53;101075.16;;;10.01;100.00
73821;BME280;62150;43.582;1.456;2023-02-07T16:18:35;101069.56;;;9.83;100.00
73821;BME280;62150;43.582;1.456;2023-02-07T16:21:04;101081.06;;;9.65;100.00
73821;BME280;62150;43.582;1.456;2023-02-07T16:23:34;101070.56;;;9.34;100.00
73821;BME280;62150;43.582;1.456;2023-02-07T16:26:03;101081.72;;;9.31;100.00
73821;BME280;62150;43.582;1.456;2023-02-07T16:28:31;101075.84;;;9.25;100.00
73821;BME280;62150;43.582;1.456;2023-02-07T16:30:59;101078.28;;;9.32;100.00
73821;BME280;62150;43.582;1.456;2023-02-07T16:33:27;101083.75;;;9.13;100.00
73821;BME280;62150;43.582;1.456;2023-02-07T16:35:54;101083.16;;;9.00;100.00
73821;BME280;62150;43.582;1.456;2023-02-07T16:38:22;101075.53;;;8.97;100.00
73821;BME280;62150;43.582;1.456;2023-02-07T16:40:49;101084.22;;;8.87;100.00
73821;BME280;62150;43.582;1.456;2023-02-07T16:43:33;101082.38;;;8.95;100.00
73821;BME280;62150;43.582;1.456;2023-02-07T16:46:01;101104.03;;;9.26;100.00
73821;BME280;62150;43.582;1.456;2023-02-07T16:48:29;101101.00;;;9.04;100.00
73821;BME280;62150;43.582;1.456;2023-02-07T16:50:56;101118.47;;;9.32;100.00
73821;BME280;62150;43.582;1.456;2023-02-07T16:53:26;101100.81;;;9.15;100.00
73821;BME280;62150;43.582;1.456;2023-02-07T16:55:55;101100.72;;;9.20;100.00
73821;BME280;62150;43.582;1.456;2023-02-07T16:58:26;101090.91;;;8.97;100.00
73821;BME280;62150;43.582;1.456;2023-02-07T17:00:55;101105.69;;;9.30;100.00
73821;BME280;62150;43.582;1.456;2023-02-07T17:03:22;101098.91;;;9.26;100.00
73821;BME280;62150;43.582;1.456;2023-02-07T17:05:50;101103.28;;;9.20;100.00
73821;BME280;62150;43.582;1.456;2023-02-07T17:08:20;101117.47;;;9.39;100.00
73821;BME280;62150;43.582;1.456;2023-02-07T17:10:54;101121.22;;;9.21;100.00
73821;BME280;62150;43.582;1.456;2023-02-07T17:13:23;101132.41;;;9.16;100.00
73821;BME280;62150;43.582;1.456;2023-02-07T17:15:52;101126.16;;;9.32;100.00
73821;BME280;62150;43.582;1.456;2023-02-07T17:18:19;101129.63;;;9.29;100.00
73821;BME280;62150;43.582;1.456;2023-02-07T17:20:47;101125.53;;;9.19;100.00
73821;BME280;62150;43.582;1.456;2023-02-07T17:23:15;101120.25;;;9.28;100.00
73821;BME280;62150;43.582;1.456;2023-02-07T17:25:43;101123.13;;;9.08;100.00
73821;BME280;62150;43.582;1.456;2023-02-07T17:28:12;101130.47;;;9.30;100.00
73821;BME280;62150;43.582;1.456;2023-02-07T17:30:41;101127.22;;;9.20;100.00
73821;BME280;62150;43.582;1.456;2023-02-07T17:33:11;101137.47;;;9.20;100.00
73821;BME280;62150;43.582;1.456;2023-02-07T17:35:42;101133.09;;;9.27;100.00
73821;BME280;62150;43.582;1.456;2023-02-07T17:38:11;101133.06;;;9.28;100.00
73821;BME280;62150;43.582;1.456;2023-02-07T17:40:39;101131.50;;;9.20;100.00
73821;BME280;62150;43.582;1.456;2023-02-07T17:43:07;101137.50;;;9.19;100.00
73821;BME280;62150;43.582;1.456;2023-02-07T17:45:36;101140.13;;;9.16;100.00
73821;BME280;62150;43.582;1.456;2023-02-07T17:48:04;101144.31;;;9.20;100.00
73821;BME280;62150;43.582;1.456;2023-02-07T17:50:35;101151.25;;;9.13;100.00
73821;BME280;62150;43.582;1.456;2023-02-07T17:53:05;101141.75;;;9.20;100.00
73821;BME280;62150;43.582;1.456;2023-02-07T17:55:36;101160.44;;;9.26;100.00
73821;BME280;62150;43.582;1.456;2023-02-07T17:58:04;101156.66;;;9.46;100.00
73821;BME280;62150;43.582;1.456;2023-02-07T18:00:34;101161.06;;;9.39;100.00
73821;BME280;62150;43.582;1.456;2023-02-07T18:03:03;101160.59;;;9.17;100.00
73821;BME280;62150;43.582;1.456;2023-02-07T18:05:32;101176.63;;;9.30;100.00
73821;BME280;62150;43.582;1.456;2023-02-07T18:08:00;101163.78;;;9.31;100.00
73821;BME280;62150;43.582;1.456;2023-02-07T18:10:30;101149.41;;;9.23;100.00
73821;BME280;62150;43.582;1.456;2023-02-07T18:12:58;101159.88;;;9.09;100.00
73821;BME280;62150;43.582;1.456;2023-02-07T18:15:26;101167.66;;;9.03;100.00
73821;BME280;62150;43.582;1.456;2023-02-07T18:17:53;101183.66;;;9.17;100.00
73821;BME280;62150;43.582;1.456;2023-02-07T18:20:31;101179.47;;;9.13;100.00
73821;BME280;62150;43.582;1.456;2023-02-07T18:23:00;101179.53;;;9.08;100.00
73821;BME280;62150;43.582;1.456;2023-02-07T18:25:29;101188.88;;;9.13;100.00
73821;BME280;62150;43.582;1.456;2023-02-07T18:27:57;101186.22;;;9.17;100.00
73821;BME280;62150;43.582;1.456;2023-02-07T18:30:27;101189.38;;;9.34;100.00
73821;BME280;62150;43.582;1.456;2023-02-07T18:32:55;101188.78;;;9.19;100.00
73821;BME280;62150;43.582;1.456;2023-02-07T18:35:22;101189.63;;;9.19;100.00
73821;BME280;62150;43.582;1.456;2023-02-07T18:37:50;101200.88;;;9.11;100.00
73821;BME280;62150;43.582;1.456;2023-02-07T18:40:19;101202.47;;;9.16;100.00
73821;BME280;62150;43.582;1.456;2023-02-07T18:42:46;101202.19;;;9.34;100.00
73821;BME280;62150;43.582;1.456;2023-02-07T18:45:14;101211.78;;;9.23;100.00
73821;BME280;62150;43.582;1.456;2023-02-07T18:47:42;101212.09;;;9.02;100.00
73821;BME280;62150;43.582;1.456;2023-02-07T18:50:10;101215.75;;;8.87;100.00
73821;BME280;62150;43.582;1.456;2023-02-07T18:52:38;101215.69;;;8.92;100.00
73821;BME280;62150;43.582;1.456;2023-02-07T18:55:06;101221.00;;;8.80;100.00
73821;BME280;62150;43.582;1.456;2023-02-07T18:57:36;101216.44;;;9.00;100.00
73821;BME280;62150;43.582;1.456;2023-02-07T19:00:04;101219.91;;;8.96;100.00
73821;BME280;62150;43.582;1.456;2023-02-07T19:02:32;101219.09;;;8.94;100.00
73821;BME280;62150;43.582;1.456;2023-02-07T19:05:00;101214.03;;;8.88;100.00
73821;BME280;62150;43.582;1.456;2023-02-07T19:07:27;101210.41;;;9.01;100.00
73821;BME280;62150;43.582;1.456;2023-02-07T19:09:55;101210.56;;;8.92;100.00
73821;BME280;62150;43.582;1.456;2023-02-07T19:12:22;101212.34;;;8.87;100.00
73821;BME280;62150;43.582;1.456;2023-02-07T19:14:51;101205.75;;;8.70;100.00
73821;BME280;62150;43.582;1.456;2023-02-07T19:17:19;101211.47;;;8.88;100.00
73821;BME280;62150;43.582;1.456;2023-02-07T19:19:46;101215.06;;;8.76;100.00
73821;BME280;62150;43.582;1.456;2023-02-07T19:22:14;101215.91;;;8.77;100.00
73821;BME280;62150;43.582;1.456;2023-02-07T19:24:41;101221.09;;;8.72;100.00
73821;BME280;62150;43.582;1.456;2023-02-07T19:27:09;101215.78;;;8.86;100.00
73821;BME280;62150;43.582;1.456;2023-02-07T19:29:36;101214.72;;;9.00;100.00
73821;BME280;62150;43.582;1.456;2023-02-07T19:32:09;101214.91;;;8.87;100.00
73821;BME280;62150;43.582;1.456;2023-02-07T19:34:36;101226.16;;;8.77;100.00
73821;BME280;62150;43.582;1.456;2023-02-07T19:37:04;101225.38;;;8.71;100.00
73821;BME280;62150;43.582;1.456;2023-02-07T19:39:32;101223.94;;;8.54;100.00
73821;BME280;62150;43.582;1.456;2023-02-07T19:42:02;101222.22;;;8.53;100.00
73821;BME280;62150;43.582;1.456;2023-02-07T19:44:29;101229.06;;;8.52;100.00
73821;BME280;62150;43.582;1.456;2023-02-07T19:46:57;101230.88;;;8.43;100.00
73821;BME280;62150;43.582;1.456;2023-02-07T19:49:26;101231.66;;;8.51;100.00
73821;BME280;62150;43.582;1.456;2023-02-07T19:51:54;101224.06;;;8.42;100.00
73821;BME280;62150;43.582;1.456;2023-02-07T19:54:22;101235.09;;;8.47;100.00
73821;BME280;62150;43.582;1.456;2023-02-07T19:56:50;101236.81;;;8.46;100.00
73821;BME280;62150;43.582;1.456;2023-02-07T19:59:17;101241.91;;;8.49;100.00
73821;BME280;62150;43.582;1.456;2023-02-07T20:01:45;101247.91;;;8.48;100.00
73821;BME280;62150;43.582;1.456;2023-02-07T20:04:12;101253.03;;;8.47;100.00
73821;BME280;62150;43.582;1.456;2023-02-07T20:06:41;101249.53;;;8.54;100.00
73821;BME280;62150;43.582;1.456;2023-02-07T20:09:09;101265.16;;;8.32;100.00
73821;BME280;62150;43.582;1.456;2023-02-07T20:11:36;101268.53;;;8.36;100.00